Terminal Aerodrome Forecast
Issued by NWS Sioux Falls, SD

Home | Current Version | Previous Version | Text Only | Print | Product List | Glossary Off
Versions: 1 2 3 4 5 6 7 8 9 10 11 12 13 14 15 16 17

000
FTUS43 KFSD 161127
TAFFSD
TAF
KFSD 161127Z 1612/1712 10005KT P6SM FEW250
      TEMPO 1612/1614 BKN009
     FM161400 13011KT P6SM BKN200
     FM161600 14013G21KT P6SM BKN130
     FM162000 16019G28KT P6SM SCT140
     FM170800 18013KT P6SM BKN100=

USA.gov is the U.S. government's official web portal to all federal, state and local government web resources and services.